KPAOKSBP

Guest
Details From KPAO - Palo Alto
To KSBP - San Luis Co Rgnl
Flight Number -
Tags generated
Created
Modified
Stats Distance 151 nm / 280 km
Max Altitude 19,800 ft / 6,035 m
Waypoints 3
Social Downloads 2
Likes 0
Share VATSIM

Download

Looking for another format? Having issues loading an existing format? Contact us
Advertisement - Login to hide

Notes

Basic altitude profile: - Ascent Rate: 2500ft/min - Ascent Speed: 88kts - Cruise Altitude: 35000ft - Cruise Speed: 140kts - Descent Rate: 1500ft/min - Descent Speed: 120kts Options: - Use NATs: yes - Use PACOTS: yes - Use low airways: yes - Use high airways: yes

Route

KPAO CASRA KSBP

ID Type Via Altitude (ft/m) Position (lat/lon) Dist (leg/tot) Name
O KPAO APT - 0 / 0 37.46089 / -122.11482 - / 0 nm Palo Alto
CASRA FIX - 19,800 / 6,035 36.59886 / -121.53819 58 / 58 nm
O KSBP APT - 0 / 0 35.23714 / -120.64346 92 / 151 nm San Luis Co Rgnl

Altitude Profile

Advertisement - Login to hide

KPAO

Details ICAO KPAO (PAO)
Name Palo Alto
Region United States
Timezone America/Los_Angeles (UTC-7.0)
Stats Elevation 1 ft / 0 m (AMSL)
Location 37.460900° -122.115000°
Runways 1
Magnetic Variation 13.252° E

METAR

KPAO 231755Z VRB04KT 10SM BKN200 18/12 A2982

Decode

TAF

Not found

Departure Runways

ID Width Length Bearing (true/mag) Surface Threshold Overrun Markings Lighting
13 75 ft / 23 m 2,662 ft / 811 m 141.69° / 128.44° ASPHALT 0 ft / 0 m 236 ft / 72 m APP EDGE THRESHOLD REIL-UNI
31 75 ft / 23 m 2,662 ft / 811 m 321.70° / 308.44° ASPHALT 203 ft / 62 m 0 ft / 0 m APP EDGE THRESHOLD REIL-UNI

KSBP

Details ICAO KSBP (SBP)
Name San Luis Co Rgnl
Region United States
Timezone America/Los_Angeles (UTC-7.0)
Stats Elevation 212 ft / 65 m (AMSL)
Location 35.237100° -120.643000°
Runways 2
Magnetic Variation 12.550° E

METAR

KSBP 231756Z 22007KT 4SM -RA BR BKN009 BKN014 OVC024 14/12 A2991 RMK AO2 RAE1657B48 SLP129 P0000 60001 T01390117 10150 20117 51010 $

Decode

TAF

KSBP 231739Z 2318/2418 00000KT P6SM -SHRA BKN009 OVC015 FM231900 VRB03KT P6SM SCT004 BKN022 FM232100 24008KT P6SM BKN025 BKN060 FM240300 VRB03KT P6SM OVC018 FM241100 00000KT 3SM BR BKN008 OVC015

Decode

Destination Runways

ID Width Length Bearing (true/mag) Surface Threshold Overrun Markings Lighting
07 98 ft / 30 m 2,522 ft / 769 m 89.79° / 77.24° ASPHALT 0 ft / 0 m 0 ft / 0 m VISUAL
11 151 ft / 46 m 6,106 ft / 1,861 m 124.87° / 112.32° ASPHALT 801 ft / 244 m 600 ft / 183 m PREC-APP EDGE THRESHOLD MALSR REIL-OMNI
25 98 ft / 30 m 2,522 ft / 769 m 269.80° / 257.25° ASPHALT 0 ft / 0 m 0 ft / 0 m VISUAL
29 151 ft / 46 m 6,106 ft / 1,861 m 304.88° / 292.33° ASPHALT 499 ft / 152 m 600 ft / 183 m APP EDGE THRESHOLD

Approach Navaids

Runway Type Ident Frequency Range Bearing (true/mag) Slope Elevation
11 LOC-ILS ISBP 109.70 MHz 18 nm / 33 km 125.17° / 112.62 ° - 206 ft / 63 m (AMSL)
11 OM OM - - 124.87° / 112.32 ° - 212 ft / 65 m (AMSL)
11 GS ISBP 109.70 MHz 10 nm / 19 km 125.75° / 113.20 ° 3.00° 172 ft / 52 m (AMSL)

Popular Alternatives